Map

Track Data

SID SEASON NUMBER BASIN SUBBASIN NAME ISO_TIME NATURE LAT LON WMO_WIND WMO_PRES WMO_AGENCY TRACK_TYPE DIST2LAND LANDFALL IFLAG USA_AGENCY USA_ATCF_ID USA_LAT USA_LON USA_RECORD USA_STATUS USA_WIND USA_PRES USA_SSHS USA_R34_NE USA_R34_SE USA_R34_SW USA_R34_NW USA_R50_NE USA_R50_SE USA_R50_SW USA_R50_NW USA_R64_NE USA_R64_SE USA_R64_SW USA_R64_NW USA_POCI USA_ROCI USA_RMW USA_EYE TOKYO_LAT TOKYO_LON TOKYO_GRADE TOKYO_WIND TOKYO_PRES TOKYO_R50_DIR TOKYO_R50_LONG TOKYO_R50_SHORT TOKYO_R30_DIR TOKYO_R30_LONG TOKYO_R30_SHORT TOKYO_LAND CMA_LAT CMA_LON CMA_CAT CMA_WIND CMA_PRES HKO_LAT HKO_LON HKO_CAT HKO_WIND HKO_PRES NEWDELHI_LAT NEWDELHI_LON NEWDELHI_GRADE NEWDELHI_WIND NEWDELHI_PRES NEWDELHI_CI NEWDELHI_DP NEWDELHI_POCI REUNION_LAT REUNION_LON REUNION_TYPE REUNION_WIND REUNION_PRES REUNION_TNUM REUNION_CI REUNION_RMW REUNION_R34_NE REUNION_R34_SE REUNION_R34_SW REUNION_R34_NW REUNION_R50_NE REUNION_R50_SE REUNION_R50_SW REUNION_R50_NW REUNION_R64_NE REUNION_R64_SE REUNION_R64_SW REUNION_R64_NW BOM_LAT BOM_LON BOM_TYPE BOM_WIND BOM_PRES BOM_TNUM BOM_CI BOM_RMW BOM_R34_NE BOM_R34_SE BOM_R34_SW BOM_R34_NW BOM_R50_NE BOM_R50_SE BOM_R50_SW BOM_R50_NW BOM_R64_NE BOM_R64_SE BOM_R64_SW BOM_R64_NW BOM_ROCI BOM_POCI BOM_EYE BOM_POS_METHOD BOM_PRES_METHOD NADI_LAT NADI_LON NADI_CAT NADI_WIND NADI_PRES WELLINGTON_LAT WELLINGTON_LON WELLINGTON_WIND WELLINGTON_PRES DS824_LAT DS824_LON DS824_STAGE DS824_WIND DS824_PRES TD9636_LAT TD9636_LON TD9636_STAGE TD9636_WIND TD9636_PRES TD9635_LAT TD9635_LON TD9635_WIND TD9635_PRES TD9635_ROCI NEUMANN_LAT NEUMANN_LON NEUMANN_CLASS NEUMANN_WIND NEUMANN_PRES MLC_LAT MLC_LON MLC_CLASS MLC_WIND MLC_PRES USA_GUST BOM_GUST BOM_GUST_PER REUNION_GUST REUNION_GUST_PER USA_SEAHGT USA_SEARAD_NE USA_SEARAD_SE USA_SEARAD_SW USA_SEARAD_NW STORM_SPEED STORM_DIR
1985070S17175 1985 30 SP MM HINA 1985-03-11 00:00:00 NR -16.5000 174.700 30 997 wellington main 312 312 ________O_____ -1 -16.5000 174.700 30 997 6 272
1985070S17175 1985 30 SP MM HINA 1985-03-11 03:00:00 NR -16.4885 174.365 main 341 341 ________P_____ -1 -16.4885 174.365 30 997 7 273
1985070S17175 1985 30 SP MM HINA 1985-03-11 06:00:00 NR -16.4615 173.993 main 379 379 ________P_____ -1 -16.4615 173.993 30 997 8 276
1985070S17175 1985 30 SP MM HINA 1985-03-11 09:00:00 NR -16.4038 173.550 main 422 422 ________P_____ -1 -16.4038 173.550 30 997 11 284
1985070S17175 1985 30 SP MM HINA 1985-03-11 12:00:00 NR -16.2000 172.920 30 997 wellington main 499 481 ________O_O___ -1 -16.3000 173.000 30 997 -15.8000 172.600 1 13 288
1985070S17175 1985 30 SP MM HINA 1985-03-11 15:00:00 NR -15.9959 172.230 main 471 410 ________P_P___ -1 -16.1401 172.322 30 997 -15.7074 172.045 1 14 287
1985070S17175 1985 30 SP MM HINA 1985-03-11 18:00:00 NR -15.7985 171.530 main 399 340 ________P_P___ -1 -15.9389 171.559 30 997 -15.6113 171.492 1 14 286
1985070S17175 1985 30 SP MM HINA 1985-03-11 21:00:00 NR -15.6138 170.855 main 340 290 ________P_P___ -1 -15.7181 170.766 30 997 -15.5095 170.943 1 13 293
1985070S17175 1985 30 SP MM HINA 1985-03-12 00:00:00 TS -15.2800 170.240 30 997 wellington main 280 243 O_______O_O_O_ jtwc_sh SH301985 -14.6000 170.400 XX 25 -5 -15.5000 170.000 30 997 -15.4000 170.400 1 -14.6000 170.400 TC 25 13 292
1985070S17175 1985 30 SP MM HINA 1985-03-12 03:00:00 TS -15.1295 169.637 main 234 193 P_______P_P_P_ SH301985 -14.7829 169.745 XX 25 -5 -15.3255 169.303 30 997 -15.2800 169.863 1 -14.7829 169.745 TC 25 12 281
1985070S17175 1985 30 SP MM HINA 1985-03-12 06:00:00 TS -15.0432 169.034 main 194 150 O_______P_P_O_ jtwc_sh SH301985 -14.9000 169.100 XX 25 -5 -15.1571 168.646 30 997 -15.1441 169.323 1 -14.9000 169.100 TC 25 12 279
1985070S17175 1985 30 SP MM HINA 1985-03-12 09:00:00 TS -14.9440 168.442 main 140 88 P_______P_P_P_ SH301985 -14.9024 168.477 XX 27 -5 -14.9851 168.041 30 997 -14.9862 168.772 1 -14.9024 168.477 TC 27 11 282
1985070S17175 1985 30 SP MM HINA 1985-03-12 12:00:00 TS -14.8000 167.875 30 997 wellington main 88 46 O_______O_O_O_ jtwc_sh SH301985 -14.8000 167.900 XX 30 -5 -14.8000 167.500 30 997 -14.8000 168.200 1 -14.8000 167.900 TC 30 11 287
1985070S17175 1985 30 SP MM HINA 1985-03-12 15:00:00 TS -14.6032 167.322 main 49 39 P_______P_P_P_ SH301985 -14.6224 167.370 XX 32 -5 -14.5887 167.015 32 995 -14.5795 167.531 1 -14.6224 167.370 TC 32 11 293
1985070S17175 1985 30 SP MM HINA 1985-03-12 18:00:00 TS -14.3738 166.812 main 39 39 O_______P_P_O_ jtwc_sh SH301985 -14.4000 166.900 XX 35 -5 -14.3642 166.595 35 993 -14.3311 166.852 1 -14.4000 166.900 TC 35 10 296
1985070S17175 1985 30 SP MM HINA 1985-03-12 21:00:00 TS -14.1499 166.347 main 74 74 P_______P_P_P_ SH301985 -14.1999 166.470 XX 37 -5 -14.1327 166.228 37 991 -14.0671 166.222 1 -14.1999 166.470 TC 37 10 298
1985070S17175 1985 30 SP MM HINA 1985-03-13 00:00:00 TS -13.9250 165.950 40 990 wellington main 110 110 O_______O_O_O_ jtwc_sh SH301985 -14.0000 166.100 XX 40 -5 -13.9000 165.900 40 990 -13.8000 165.700 2 -14.0000 166.100 TC 40 8 302
1985070S17175 1985 30 SP MM HINA 1985-03-13 03:00:00 TS -13.7040 165.606 main 155 155 P_______P_P_P_ SH301985 -13.7999 165.778 XX 42 -5 -13.6790 165.549 41 989 -13.5370 165.320 2 -13.7999 165.778 TC 42 8 306
1985070S17175 1985 30 SP MM HINA 1985-03-13 06:00:00 TS -13.4835 165.323 main 194 194 O_______P_P_O_ jtwc_sh SH301985 -13.6000 165.500 XX 45 -5 -13.4574 165.238 42 988 -13.2766 165.056 2 -13.6000 165.500 TC 45 7 311
1985070S17175 1985 30 SP MM HINA 1985-03-13 09:00:00 TS -13.2650 165.085 main 225 225 P_______P_P_P_ SH301985 -13.4000 165.235 XX 47 -5 -13.2322 164.983 43 987 -13.0279 164.888 2 -13.4000 165.235 TC 47 6 317
1985070S17175 1985 30 SP MM HINA 1985-03-13 12:00:00 TS -13.0500 164.900 45 987 wellington main 264 256 O_______O_O_O_ jtwc_sh SH301985 -13.2000 165.000 XX 50 -5 -13.0000 164.800 45 987 -12.8000 164.800 2 -13.2000 165.000 TC 50 6 322
1985070S17175 1985 30 SP MM HINA 1985-03-13 15:00:00 TS -12.8299 164.730 main 295 295 P_______P_P_P_ SH301985 -13.0000 164.762 XX 52 -5 -12.7245 164.663 46 986 -12.5952 164.733 2 -13.0000 164.762 TC 52 5 329
1985070S17175 1985 30 SP MM HINA 1985-03-13 18:00:00 TS -12.6149 164.635 main 319 308 O_______P_P_O_ jtwc_sh SH301985 -12.8000 164.600 XX 55 -5 -12.4472 164.600 47 986 -12.4123 164.738 2 -12.8000 164.600 TC 55 4 345
1985070S17175 1985 30 SP MM HINA 1985-03-13 21:00:00 TS -12.4111 164.615 main 308 301 P_______P_P_P_ SH301985 -12.5999 164.525 XX 57 -5 -12.1963 164.613 48 985 -12.2483 164.799 2 -12.5999 164.525 TC 57 4 10
1985070S17175 1985 30 SP MM HINA 1985-03-14 00:00:00 TS -12.2250 164.700 50 985 wellington main 305 305 O_______O_O_O_ jtwc_sh SH301985 -12.4000 164.600 XX 60 -5 -12.0000 164.700 50 985 -12.1000 164.900 4 64 -12.4000 164.600 TC 60 4 35
1985070S17175 1985 30 SP MM HINA 1985-03-14 03:00:00 TS -12.0483 164.871 main 313 313 P_______P_P_P_ SH301985 -12.1925 164.848 XX 65 -5 -11.8802 164.825 52 982 -11.9279 164.965 4 -12.1925 164.848 TC 65 5 52
1985070S17175 1985 30 SP MM HINA 1985-03-14 06:00:00 TS -11.8980 165.124 main 329 329 O_______P_P_O_ jtwc_sh SH301985 -12.0000 165.200 XX 70 -5 -11.8173 165.023 55 980 -11.7746 165.073 4 -12.0000 165.200 TC 70 6 62
1985070S17175 1985 30 SP MM HINA 1985-03-14 09:00:00 TS -11.7737 165.403 main 349 345 P_______P_P_P_ SH301985 -11.8200 165.543 XX 75 -5 -11.7958 165.284 57 977 -11.6590 165.244 4 -11.8200 165.543 TC 75 6 71
1985070S17175 1985 30 SP MM HINA 1985-03-14 12:00:00 TS -11.7000 165.725 60 975 wellington main 349 342 O_______O_O_O_ jtwc_sh SH301985 -11.7000 165.900 XX 80 -5 -11.8000 165.600 60 975 -11.6000 165.500 4 -11.7000 165.900 TC 80 7 81
1985070S17175 1985 30 SP MM HINA 1985-03-14 15:00:00 TS -11.6674 166.064 main 340 336 P_______P_P_P_ SH301985 -11.6550 166.250 XX 85 -5 -11.7666 165.914 62 972 -11.5932 165.844 4 -11.6550 166.250 TC 85 7 90
1985070S17175 1985 30 SP MM HINA 1985-03-14 18:00:00 TS -11.7011 166.438 main 336 324 O_______P_P_O_ jtwc_sh SH301985 -11.7000 166.600 XX 90 -5 -11.7595 166.281 65 970 -11.6450 166.273 4 -11.7000 166.600 TC 90 8 100
1985070S17175 1985 30 SP MM HINA 1985-03-14 21:00:00 TS -11.8004 166.836 main 325 316 P_______P_P_P_ SH301985 -11.8274 166.935 XX 95 -5 -11.7976 166.708 67 967 -11.7493 166.766 4 -11.8274 166.935 TC 95 9 107
1985070S17175 1985 30 SP MM HINA 1985-03-15 00:00:00 TS -11.9500 167.275 70 965 wellington main 322 310 O_______O_O_O_ jtwc_sh SH301985 -12.0000 167.300 XX 100 -5 -11.9000 167.200 70 965 -11.9000 167.300 4 100 -12.0000 167.300 TC 100 9 109
1985070S17175 1985 30 SP MM HINA 1985-03-15 03:00:00 TS -12.0997 167.749 main 314 313 P_______P_P_P_ SH301985 -12.1424 167.713 XX 105 -5 -12.0610 167.748 76 956 -12.0532 167.823 4 -12.1424 167.713 TC 105 10 109
1985070S17175 1985 30 SP MM HINA 1985-03-15 06:00:00 TS -12.2849 168.286 main 325 325 O_______P_P_O_ jtwc_sh SH301985 -12.3000 168.200 XX 110 -5 -12.2875 168.361 82 947 -12.2521 168.383 4 -12.3000 168.200 TC 110 12 110
1985070S17175 1985 30 SP MM HINA 1985-03-15 09:00:00 TS -12.5025 168.880 main 340 338 P_______P_P_P_ SH301985 -12.4699 168.763 XX 115 -5 -12.5702 169.017 88 938 -12.4999 168.977 4 -12.4699 168.763 TC 115 13 112
1985070S17175 1985 30 SP MM HINA 1985-03-15 12:00:00 TS -12.7750 169.525 95 930 wellington main 357 357 O_______O_O_O_ jtwc_sh SH301985 -12.7000 169.400 XX 120 -5 -12.9000 169.700 95 930 -12.8000 169.600 4 -12.7000 169.400 TC 120 14 115
1985070S17175 1985 30 SP MM HINA 1985-03-15 15:00:00 TS -13.1013 170.195 main 396 396 P_______P_P_P_ SH301985 -13.0199 170.078 XX 122 -5 -13.2405 170.383 98 927 -13.1251 170.243 4 -13.0199 170.078 TC 122 15 118
1985070S17175 1985 30 SP MM HINA 1985-03-15 18:00:00 TS -13.4817 170.900 main 442 442 O_______P_P_O_ jtwc_sh SH301985 -13.4000 170.800 XX 125 -5 -13.6248 171.086 102 925 -13.5022 170.914 4 -13.4000 170.800 TC 125 16 119
1985070S17175 1985 30 SP MM HINA 1985-03-15 21:00:00 TS -13.8824 171.625 main 488 488 P_______P_P_P_ SH301985 -13.7774 171.550 XX 127 -5 -14.0467 171.796 106 922 -13.9282 171.603 4 -13.7774 171.550 TC 127 16 121
1985070S17175 1985 30 SP MM HINA 1985-03-16 00:00:00 TS -14.3250 172.350 110 920 wellington main 532 532 O_______O_O_O_ jtwc_sh SH301985 -14.2000 172.300 XX 130 -5 -14.5000 172.500 110 920 -14.4000 172.300 4 120 -14.2000 172.300 TC 130 17 123
1985070S17175 1985 30 SP MM HINA 1985-03-16 03:00:00 TS -14.7928 173.060 main 555 471 P_______P_P_P_ SH301985 -14.6773 173.015 XX 132 -5 -14.9343 173.196 112 917 -14.8825 173.014 4 -14.6773 173.015 TC 132 17 126
1985070S17175 1985 30 SP MM HINA 1985-03-16 06:00:00 TS -15.3030 173.753 main 462 377 O_______P_P_O_ jtwc_sh SH301985 -15.2000 173.700 XX 135 -5 -15.4021 173.882 115 915 -15.4101 173.731 4 -15.2000 173.700 TC 135 17 128
1985070S17175 1985 30 SP MM HINA 1985-03-16 09:00:00 TS -15.8427 174.429 main 377 288 P_______P_P_P_ SH301985 -15.7348 174.365 XX 135 -5 -15.9188 174.552 117 912 -15.9826 174.433 4 -15.7348 174.365 TC 135 17 131
1985070S17175 1985 30 SP MM HINA 1985-03-16 12:00:00 TS -16.4250 175.075 120 910 wellington main 279 192 O_______O_O_O_ jtwc_sh SH301985 -16.3000 175.000 XX 135 -5 -16.5000 175.200 120 910 -16.6000 175.100 4 -16.3000 175.000 TC 135 17 133
1985070S17175 1985 30 SP MM HINA 1985-03-16 15:00:00 TS -16.9839 175.696 main 192 105 P_______P_P_P_ SH301985 -16.8548 175.616 XX 130 -5 -17.0630 175.844 117 912 -17.1628 175.707 4 -16.8548 175.616 TC 130 17 136
1985070S17175 1985 30 SP MM HINA 1985-03-16 18:00:00 TS -17.6212 176.286 main 105 47 O_______P_P_O_ jtwc_sh SH301985 -17.5000 176.200 XX 125 -5 -17.7030 176.464 115 915 -17.7818 176.279 4 -17.5000 176.200 TC 125 18 142
1985070S17175 1985 30 SP MM HINA 1985-03-16 21:00:00 TS -18.3740 176.855 main 53 53 P_______P_P_P_ SH301985 -18.2599 176.766 XX 117 -5 -18.4664 177.051 112 917 -18.5098 176.836 4 -18.2599 176.766 TC 117 20 148
1985070S17175 1985 30 SP MM HINA 1985-03-17 00:00:00 TS -19.3000 177.400 110 920 wellington main 123 123 O_______O_O_O_ jtwc_sh SH301985 -19.2000 177.300 XX 110 -5 -19.4000 177.600 110 920 -19.4000 177.400 4 -19.2000 177.300 TC 110 23 154
1985070S17175 1985 30 SP MM HINA 1985-03-17 03:00:00 TS -20.4426 177.940 main 234 234 P_______P_P_P_ SH301985 -20.3399 177.808 XX 105 -5 -20.5598 178.089 106 922 -20.5310 178.055 4 -20.3399 177.808 TC 105 26 158
1985070S17175 1985 30 SP MM HINA 1985-03-17 06:00:00 TS -21.7253 178.467 main 381 381 O_______P_P_O_ jtwc_sh SH301985 -21.6000 178.300 XX 100 -5 -21.8841 178.547 102 925 -21.8169 178.719 4 -21.6000 178.300 TC 100 28 159
1985070S17175 1985 30 SP MM HINA 1985-03-17 09:00:00 TS -23.0326 178.989 main 532 532 P_______P_P_P_ SH301985 -22.8349 178.801 XX 95 -5 -23.2914 179.006 98 927 -23.1692 179.349 4 -22.8349 178.801 TC 95 28 160
1985070S17175 1985 30 SP MM HINA 1985-03-17 12:00:00 TS -24.3500 179.500 95 930 wellington main 684 684 O_______O_O_O_ jtwc_sh SH301985 -24.1000 179.300 XX 90 -5 -24.7000 179.500 95 930 -24.5000 179.900 4 -24.1000 179.300 TC 90 28 161
1985070S17175 1985 30 SP MM HINA 1985-03-17 15:00:00 TS -25.6463 179.970 main 836 836 P_______P_P_P_ SH301985 -25.4073 179.801 XX 85 -5 -26.0443 -179.953 91 936 -25.7264 -179.767 4 -25.4073 179.801 TC 85 27 162
1985070S17175 1985 30 SP MM HINA 1985-03-17 18:00:00 TS -26.9203 180.433 main 987 987 O_______P_P_O_ jtwc_sh SH301985 -26.7000 -179.700 XX 80 -5 -27.3672 -179.359 87 942 -26.9138 -179.509 4 -26.7000 -179.700 TC 80 26 162
1985070S17175 1985 30 SP MM HINA 1985-03-17 21:00:00 TS -28.1487 180.902 main 1016 951 P_______P_P_P_ SH301985 -27.9593 -179.229 XX 75 -5 -28.6316 -178.711 83 948 -28.0446 -179.223 4 -27.9593 -179.229 TC 75 25 159
1985070S17175 1985 30 SP MM HINA 1985-03-18 00:00:00 TS -29.2750 181.450 80 955 wellington main 943 895 O_______O_O_O_ jtwc_sh SH301985 -29.1000 -178.700 XX 70 -5 -29.8000 -178.000 80 955 -29.1000 -178.800 4 -29.1000 -178.700 TC 70 24 153
1985070S17175 1985 30 SP MM HINA 1985-03-18 03:00:00 TS -30.2799 182.143 main 885 834 P_______P_P_P_ SH301985 -30.0669 -178.059 XX 65 -5 -30.9138 -177.224 75 960 -30.0721 -178.085 4 -30.0669 -178.059 TC 65 23 146
1985070S17175 1985 30 SP MM HINA 1985-03-18 06:00:00 TS -31.1708 182.950 main 824 795 O_______P_P_O_ jtwc_sh SH301985 -30.9000 -177.300 XX 60 -5 -31.9183 -176.385 70 965 -30.9650 -177.216 4 -30.9000 -177.300 TC 60 22 140
1985070S17175 1985 30 SP MM HINA 1985-03-18 09:00:00 TS -31.9795 183.840 main 791 784 P_______P_P_P_ SH301985 -31.6648 -176.436 XX 55 -5 -32.7887 -175.503 65 970 -31.8000 -176.264 4 -31.6648 -176.436 TC 55 22 135
1985070S17175 1985 30 SP MM HINA 1985-03-18 12:00:00 TS -32.7250 184.775 60 975 wellington main 791 783 O_______O_O_O_ jtwc_sh SH301985 -32.4000 -175.500 XX 50 -5 -33.5000 -174.600 60 975 -32.6000 -175.300 2 -32.4000 -175.500 TC 50 22 134
1985070S17175 1985 30 SP MM HINA 1985-03-18 15:00:00 TS -33.4633 185.694 main 792 792 P_______P_P_P_ SH301985 -33.1918 -174.563 XX 45 -5 -34.0835 -173.717 55 978 -33.3860 -174.381 2 -33.1918 -174.563 TC 45 22 133
1985070S17175 1985 30 SP MM HINA 1985-03-18 18:00:00 TS -34.1945 186.661 main 824 824 O_______P_P_O_ jtwc_sh SH301985 -34.0000 -173.600 XX 40 -5 -34.5091 -172.824 50 982 -34.1639 -173.504 2 -34.0000 -173.600 TC 40 21 130
1985070S17175 1985 30 SP MM HINA 1985-03-18 21:00:00 TS -34.8308 187.658 main 875 870 P_______P_P_P_ SH301985 -34.8042 -172.611 XX 37 -5 -34.8052 -171.919 45 986 -34.9351 -172.650 2 -34.8042 -172.611 TC 37 20 123
1985070S17175 1985 30 SP MM HINA 1985-03-19 00:00:00 TS -35.2714 188.714 40 990 wellington main 938 938 O_______O_O_O_ jtwc_sh SH301985 -35.6000 -171.600 XX 35 -5 -35.0000 -171.000 40 990 -35.7000 -171.800 2 -35.6000 -171.600 TC 35 19 100
1985070S17175 1985 30 SP MM HINA 1985-03-19 03:00:00 NR -35.1569 189.923 main 1045 1045 ________P_____ SH301985 XX -5 -35.1569 -170.077 37 991 2 TC 18 88
1985070S17175 1985 30 SP MM HINA 1985-03-19 06:00:00 NR -35.2235 190.860 main 1131 1131 ________P_____ XX -5 -35.2235 -169.140 35 993 2 15 93
1985070S17175 1985 30 SP MM HINA 1985-03-19 09:00:00 NR -35.2285 191.816 main 1209 1209 ________P_____ XX -5 -35.2285 -168.184 32 995 2 16 89
1985070S17175 1985 30 SP MM HINA 1985-03-19 12:00:00 NR -35.2000 192.800 30 997 wellington main 1295 1295 ________O_____ -1 -35.2000 -167.200 30 997 15 83
1985070S17175 1985 30 SP MM HINA 1985-03-19 15:00:00 NR -35.0363 193.688 main 1380 1380 ________P_____ -1 -35.0363 -166.312 30 997 15 78
1985070S17175 1985 30 SP MM HINA 1985-03-19 18:00:00 NR -34.8698 194.620 main 1462 1462 ________P_____ -1 -34.8698 -165.380 30 997 17 82
1985070S17175 1985 30 SP MM HINA 1985-03-19 21:00:00 NR -34.8193 195.690 main 1561 1561 ________P_____ -1 -34.8193 -164.310 30 997 20 94
1985070S17175 1985 30 SP MM HINA 1985-03-20 00:00:00 NR -35.0000 197.000 30 997 wellington main 1668 1668 ________O_____ -1 -35.0000 -163.000 30 997 25 106
1985070S17175 1985 30 SP MM HINA 1985-03-20 03:00:00 NR -35.4879 198.633 main 1794 1794 ________P_____ -1 -35.4879 -161.367 30 997 31 113
1985070S17175 1985 30 SP MM HINA 1985-03-20 06:00:00 NR -36.2170 200.558 main 1952 1952 ________P_____ -1 -36.2170 -159.442 30 997 37 116
1985070S17175 1985 30 SP MM HINA 1985-03-20 09:00:00 NR -37.0869 202.708 main 2118 2118 ________P_____ -1 -37.0869 -157.292 30 997 40 117
1985070S17175 1985 30 SP MM HINA 1985-03-20 12:00:00 NR -38.0000 205.000 30 997 wellington main 2304 ________O_____ -1 -38.0000 -155.000 30 997 41 117

Digital Typhoon Data and Search

About IBTrACS Database

This database is a web-friendly format of International Best Track Archive for Climate Stewardship (IBTrACS), a global best track data archive curated by NOAA dating back to 1842.

Updated: 2021-10-08